Bartlett, Iowa
Current Conditions -  °F | °C
As of 10:35 AM on Saturday 25 Oct 2014 (Local Time) from KPMV Reporting Station
Clear Clear  
Wind Chill: 61°   Ceiling: Unl
Heat Index: 61°   Visibility: 10mi
Dew Point: 43°   Wind: 7mph
Humidity: 51%   Direction: 50°NE
Pressure: 30.12"   Gusts: NA
Location:  40.8429°N, 95.7754°W
Report Text: KPMV 251535Z AUTO 05006KT 10SM CLR 16/06 A3012 RMK AO2 T01610059
Loading
Personal Weather Stations






























Interactive Weather Map
Tropical Storm Tracking
New forecast layout! Learn more

10-Day Weather Forecast

Advertisements
Track Severe Weather on mobile